Ana Sayfa
METAR-TAF:

METAR-TAF

Havaalanları :

Köstence, Romanya

Enlem: 44-20N, Boylam: 028-26E, yükseklik: 97 m

Güncel hava durumu gözlemi

Rapor saat 00:00 UTC de 19 dakika önce yapıldı.
Rüzgar güneydan 5 kt
Sıcaklık 5°C
Nem 75%
Basınç 1005 hPa
Görüş mesafesi 10 km veya daha fazla
1500 m altında bulut yok ve kümülonimbus yok

METAR: LRCK 260000Z 19005KT CAVOK 05/01 Q1005 NOSIG

Saat: 02:19 (00:19 UTC)

Tahmin

Rapor saat 23:00 UTC de 1 saat ve 19 dakika önce yapıldı.
Ayın 26'si saat 00 UTC'den ayın 26'si saat 24 UTC'ye kadar geçerli Tahmin
Rüzgar güney/güneybatıdan 14 kt
Görüş mesafesi 10 km veya daha fazla
1500 m altında bulut yok ve kümülonimbus yok

TAF: LRCK 252300Z 2600/2624 21014KT CAVOK

4.000'den fazla havaalanı için hava durumu gözlemleri ve tahminleri (METAR ve TAF raporları).

Kullanılabilir istasyonlar harita üzerinde sarı ve kırmızı noktalarla gösterilir.

İstasyonun adını görmek için fareyi noktanın üzerinde gezdirin.

Sonrasında hava gözlem ve tahminlerini görmek için tıklayın.

Haritayı değiştirmek için: yaklaştırmak için siyah artı işaretli yeşil düğmeye ve uzaklaştırmak için de eksi işaretli düğmeye hızla tıklayın; bitişik haritalar için yeşil okları kullanın.


METAR-TAF: